YSSY Airport Information

Runway Information
Runway 07 Length 8300 ft width 148 ft
Elevation 16 ft Threshold 0 ft Heading 74
Runway 25 Length 8300 ft Width 148 ft
Elevation 20 ft Threshold 324 ft Heading 254
Runway 16L Length 7999 ft width 148 ft
Elevation 16 ft Threshold 758 ft Heading 168
Runway 34R Length 7999 ft Width 148 ft
Elevation 13 ft Threshold 125 ft Heading 348
Runway 16R Length 12999 ft width 148 ft
Elevation 8 ft Threshold 279 ft Heading 168
Runway 34L Length 12999 ft Width 148 ft
Elevation 14 ft Threshold 0 ft Heading 348
Airport Frequencies
Type APP Name APP Frequency 135.1 MHZ
Type ATIS Name ATIS Frequency 126.25 MHZ
Type CLD Name CLNC DEL Frequency 133.8 MHZ
Type DEP Name DEP Frequency 123 MHZ
Type GND Name GND Frequency 121.7 MHZ
Type OPS Name RAAF AIR O Frequency 1123.5 MHZ
Type TWR Name TWR Frequency 120.5 MHZ
Airport Navaids
Type NDB Name Glenfield Frequency 428 KHZ
Type VOR-DME Name Sydney Frequency 112100 KHZ
Airport Weather Information & NOTAM
ADDS - METARS form results

(0533 UTC 17 July 2018)
Data provider http://aviationweather.gov/adds/metars/
 
METAR text: YSSY 170515Z 31015G26KT CAVOK 23/M07 Q1011 FM0515 34015G25KT CAVOK FM0515 MOD/SEV TURB BLW 5000FT
Conditions at: YSSY (SYDNEY INTL AIRP, AU) observed 0515 UTC 17 July 2018
Temperature: 23.0°C (73°F)
Dewpoint: -7.0°C (19°F) [RH = 13%]
Pressure (altimeter): 29.85 inches Hg (1011.0 mb)
Winds: from the NW (310 degrees) at 17 MPH (15 knots; 7.8 m/s)
gusting to 30 MPH (26 knots; 13.5 m/s)
Visibility: 6 or more miles (10+ km)
Ceiling: ceiling and visibility are OK
Clouds: unknown
Weather: no significant weather observed at this time

METAR text: YSSY 170500Z 30018KT CAVOK 23/M07 Q1011 FM0500 34015G25KT CAVOK FM0500 MOD/SEV TURB BLW 5000FT
Conditions at: YSSY (SYDNEY INTL AIRP, AU) observed 0500 UTC 17 July 2018
Temperature: 23.0°C (73°F)
Dewpoint: -7.0°C (19°F) [RH = 13%]
Pressure (altimeter): 29.85 inches Hg (1011.0 mb)
Winds: from the WNW (300 degrees) at 21 MPH (18 knots; 9.4 m/s)
Visibility: 6 or more miles (10+ km)
Ceiling: ceiling and visibility are OK
Clouds: unknown
Weather: no significant weather observed at this time

METAR text: YSSY 170437Z 30018G28KT CAVOK 23/M05 Q1011 FM0437 34015G25KT CAVOK FM0437 MOD/SEV TURB BLW 5000FT
Conditions at: YSSY (SYDNEY INTL AIRP, AU) observed 0437 UTC 17 July 2018
Temperature: 23.0°C (73°F)
Dewpoint: -5.0°C (23°F) [RH = 15%]
Pressure (altimeter): 29.85 inches Hg (1011.0 mb)
Winds: from the WNW (300 degrees) at 21 MPH (18 knots; 9.4 m/s)
gusting to 32 MPH (28 knots; 14.6 m/s)
Visibility: 6 or more miles (10+ km)
Ceiling: ceiling and visibility are OK
Clouds: unknown
Weather: no significant weather observed at this time

Forecast for: YSSY (SYDNEY INTL AIRP, AU)
Text: TAF YSSY 170519Z 1706/1812 34015G25KT CAVOK
Forecast period: 0600 to 0900 UTC 17 July 2018
Forecast type: FROM: standard forecast or significant change
Winds: from the NNW (340 degrees) at 17 MPH (15 knots; 7.8 m/s)
gusting to 29 MPH (25 knots; 13.0 m/s)
Visibility: 6 or more miles (10+ km)
Clouds: not forecast
Weather: NSW  (no significant weather)
Text: FM170900 34013KT CAVOK
Forecast period: 0900 to 1500 UTC 17 July 2018
Forecast type: FROM: standard forecast or significant change
Winds: from the NNW (340 degrees) at 15 MPH (13 knots; 6.8 m/s)
Visibility: 6 or more miles (10+ km)
Clouds: not forecast
Weather: NSW  (no significant weather)
Text: FM171500 23010KT CAVOK
Forecast period: 1500 UTC 17 July 2018 to 0200 UTC 18 July 2018
Forecast type: FROM: standard forecast or significant change
Winds: from the SW (230 degrees) at 12 MPH (10 knots; 5.2 m/s)
Visibility: 6 or more miles (10+ km)
Clouds: not forecast
Weather: NSW  (no significant weather)
Text: FM180200 29008KT CAVOK
Forecast period: 0200 to 1200 UTC 18 July 2018
Forecast type: FROM: standard forecast or significant change
Winds: from the WNW (290 degrees) at 9 MPH (8 knots; 4.2 m/s)
Visibility: 6 or more miles (10+ km)
Clouds: not forecast
Weather: NSW  (no significant weather)